<?xml version="1.0" encoding="UTF-8" standalone="no" ?>
<gpx xmlns="http://www.topografix.com/GPX/1/1" xmlns:xsi="http://www.w3.org/2001/XMLSchema-instance" xsi:schemaLocation="http://www.topografix.com/GPX/1/1 http://www.topografix.com/GPX/1/1/gpx.xsd" version="1.1" creator="VisuGPX - https://www.visugpx.com">
  <metadata>
    <name>grand_colombier-TET</name>
    <desc><![CDATA[name=2022 09 24 Begin of the TET section 20 Track
cmt=
desc=
time=2022-09-24T09:46:08Z]]></desc>
  </metadata>
  <wpt lat="45.85842" lon="5.77164">
    <ele>661.1</ele>
    <name><![CDATA[à vérif]]></name>
    <desc><![CDATA[name=à vérif]]></desc>
  </wpt>
  <wpt lat="45.86391" lon="5.82138">
    <ele>238.1</ele>
    <name><![CDATA[ok]]></name>
    <desc><![CDATA[name=ok]]></desc>
  </wpt>
  <wpt lat="46.00337" lon="5.81125">
    <ele>271.3</ele>
    <name><![CDATA[ok]]></name>
    <desc><![CDATA[name=ok]]></desc>
  </wpt>
  <wpt lat="45.98447" lon="5.79127">
    <ele>573.6</ele>
    <name><![CDATA[ok]]></name>
    <desc><![CDATA[name=ok]]></desc>
  </wpt>
  <wpt lat="45.97026" lon="5.76896">
    <ele>1090.4</ele>
    <name><![CDATA[ok]]></name>
    <desc><![CDATA[name=ok]]></desc>
  </wpt>
  <wpt lat="46.09692" lon="5.77954">
    <ele>576.7</ele>
    <name><![CDATA[ok]]></name>
    <desc><![CDATA[name=ok]]></desc>
  </wpt>
  <wpt lat="46.17247" lon="5.75381">
    <ele>531.9</ele>
    <name><![CDATA[ok]]></name>
    <desc><![CDATA[name=ok]]></desc>
  </wpt>
  <wpt lat="45.89804" lon="5.73838">
    <ele>910.1</ele>
    <name><![CDATA[ok]]></name>
    <desc><![CDATA[name=ok]]></desc>
  </wpt>
  <wpt lat="45.92864" lon="5.73929">
    <ele>830.7</ele>
  </wpt>
  <wpt lat="45.95229" lon="5.74925">
    <ele>1311.1</ele>
  </wpt>
  <wpt lat="45.86162" lon="5.79089">
    <ele>594.4</ele>
    <name><![CDATA[par la route]]></name>
    <desc><![CDATA[name=par la route]]></desc>
  </wpt>
  <wpt lat="45.92514" lon="5.79762">
    <ele>682.4</ele>
    <name><![CDATA[Vérif si autorisé]]></name>
    <desc><![CDATA[name=Vérif si autorisé]]></desc>
  </wpt>
  <wpt lat="45.89315" lon="5.7063">
    <ele>484.5</ele>
    <name><![CDATA[ok]]></name>
    <desc><![CDATA[name=ok]]></desc>
  </wpt>
  <wpt lat="45.87199" lon="5.7075">
    <ele>246.1</ele>
    <name><![CDATA[ok]]></name>
    <desc><![CDATA[name=ok]]></desc>
  </wpt>
  <wpt lat="45.8999" lon="5.83082">
    <ele>240</ele>
    <name><![CDATA[ok]]></name>
    <desc><![CDATA[name=ok]]></desc>
  </wpt>
  <trk>
    <name><![CDATA[Chilly - Bellegarde-sur-Valserine TET SECTION 22 et 26]]></name>
    <desc><![CDATA[name=Chilly - Bellegarde-sur-Valserine TET SECTION 22 et 26
cmt=
desc=
time=2022-10-26T10:01:02Z]]></desc>
    <extensions>
      <line xmlns="http://www.topografix.com/GPX/gpx_style/0/2">
        <color>00FF00</color>
        <width>4</width>
      </line>
    </extensions>
    <trkseg>
      <trkpt lat="45.99161" lon="5.95229">
        <ele>495.497</ele>
        <time>2022-10-26T10:01:02Z</time>
      </trkpt>
      <trkpt lat="45.99154" lon="5.95049">
        <ele>492.423</ele>
        <time>2022-10-26T10:01:16Z</time>
      </trkpt>
      <trkpt lat="45.99065" lon="5.94999">
        <ele>488.725</ele>
        <time>2022-10-26T10:01:25Z</time>
      </trkpt>
      <trkpt lat="45.99045" lon="5.94955">
        <ele>481.509</ele>
        <time>2022-10-26T10:01:32Z</time>
      </trkpt>
      <trkpt lat="45.99253" lon="5.94731">
        <ele>487.44</ele>
        <time>2022-10-26T10:01:56Z</time>
      </trkpt>
      <trkpt lat="45.99336" lon="5.9416">
        <ele>496.55</ele>
        <time>2022-10-26T10:02:25Z</time>
      </trkpt>
      <trkpt lat="45.99415" lon="5.94089">
        <ele>499.176</ele>
        <time>2022-10-26T10:02:34Z</time>
      </trkpt>
      <trkpt lat="45.99491" lon="5.93976">
        <ele>502.543</ele>
        <time>2022-10-26T10:02:43Z</time>
      </trkpt>
      <trkpt lat="45.99523" lon="5.93735">
        <ele>495.219</ele>
        <time>2022-10-26T10:02:59Z</time>
      </trkpt>
      <trkpt lat="45.99498" lon="5.93604">
        <ele>491.29</ele>
        <time>2022-10-26T10:03:08Z</time>
      </trkpt>
      <trkpt lat="45.99535" lon="5.93548">
        <ele>488.562</ele>
        <time>2022-10-26T10:03:13Z</time>
      </trkpt>
      <trkpt lat="45.99629" lon="5.93526">
        <ele>494.521</ele>
        <time>2022-10-26T10:03:23Z</time>
      </trkpt>
      <trkpt lat="45.99692" lon="5.93364">
        <ele>505.214</ele>
        <time>2022-10-26T10:03:34Z</time>
      </trkpt>
      <trkpt lat="45.99695" lon="5.93148">
        <ele>517.187</ele>
        <time>2022-10-26T10:03:49Z</time>
      </trkpt>
      <trkpt lat="45.99717" lon="5.93113">
        <ele>519.442</ele>
        <time>2022-10-26T10:03:58Z</time>
      </trkpt>
      <trkpt lat="45.99692" lon="5.93102">
        <ele>521.626</ele>
        <time>2022-10-26T10:04:23Z</time>
      </trkpt>
      <trkpt lat="45.99665" lon="5.93151">
        <ele>523.909</ele>
        <time>2022-10-26T10:04:32Z</time>
      </trkpt>
      <trkpt lat="45.99554" lon="5.93089">
        <ele>535.039</ele>
        <time>2022-10-26T10:11:44Z</time>
      </trkpt>
      <trkpt lat="45.99508" lon="5.9303">
        <ele>544.899</ele>
        <time>2022-10-26T10:11:54Z</time>
      </trkpt>
      <trkpt lat="45.99464" lon="5.92913">
        <ele>562.045</ele>
        <time>2022-10-26T10:12:14Z</time>
      </trkpt>
      <trkpt lat="45.99469" lon="5.92844">
        <ele>569.422</ele>
        <time>2022-10-26T10:12:28Z</time>
      </trkpt>
      <trkpt lat="45.9944" lon="5.9274">
        <ele>588.168</ele>
        <time>2022-10-26T10:16:15Z</time>
      </trkpt>
      <trkpt lat="45.99454" lon="5.92696">
        <ele>595.179</ele>
        <time>2022-10-26T10:20:43Z</time>
      </trkpt>
      <trkpt lat="45.99522" lon="5.92673">
        <ele>595.721</ele>
        <time>2022-10-26T10:20:54Z</time>
      </trkpt>
      <trkpt lat="45.99616" lon="5.92569">
        <ele>595.72</ele>
        <time>2022-10-26T10:21:11Z</time>
      </trkpt>
      <trkpt lat="45.99726" lon="5.9236">
        <ele>579.833</ele>
        <time>2022-10-26T10:21:43Z</time>
      </trkpt>
      <trkpt lat="45.99744" lon="5.9215">
        <ele>564.897</ele>
        <time>2022-10-26T10:22:14Z</time>
      </trkpt>
      <trkpt lat="45.99828" lon="5.91792">
        <ele>561.423</ele>
        <time>2022-10-26T10:22:45Z</time>
      </trkpt>
      <trkpt lat="45.99813" lon="5.91597">
        <ele>562.225</ele>
        <time>2022-10-26T10:22:55Z</time>
      </trkpt>
      <trkpt lat="45.99833" lon="5.91487">
        <ele>560.509</ele>
        <time>2022-10-26T10:23:02Z</time>
      </trkpt>
      <trkpt lat="45.99765" lon="5.91259">
        <ele>563.35</ele>
        <time>2022-10-26T10:23:15Z</time>
      </trkpt>
      <trkpt lat="45.9976" lon="5.91053">
        <ele>563.41</ele>
        <time>2022-10-26T10:23:30Z</time>
      </trkpt>
      <trkpt lat="45.9981" lon="5.90918">
        <ele>563.596</ele>
        <time>2022-10-26T10:23:42Z</time>
      </trkpt>
      <trkpt lat="45.99924" lon="5.90765">
        <ele>547.483</ele>
        <time>2022-10-26T10:24:01Z</time>
      </trkpt>
      <trkpt lat="46.00027" lon="5.90696">
        <ele>539.039</ele>
        <time>2022-10-26T10:24:15Z</time>
      </trkpt>
      <trkpt lat="46.00066" lon="5.90513">
        <ele>521.05</ele>
        <time>2022-10-26T10:24:37Z</time>
      </trkpt>
      <trkpt lat="46.00154" lon="5.90479">
        <ele>514.182</ele>
        <time>2022-10-26T10:24:50Z</time>
      </trkpt>
      <trkpt lat="46.00259" lon="5.90394">
        <ele>510.121</ele>
        <time>2022-10-26T10:25:02Z</time>
      </trkpt>
      <trkpt lat="46.00297" lon="5.90186">
        <ele>503.534</ele>
        <time>2022-10-26T10:25:16Z</time>
      </trkpt>
      <trkpt lat="46.00293" lon="5.90091">
        <ele>498.528</ele>
        <time>2022-10-26T10:25:23Z</time>
      </trkpt>
      <trkpt lat="46.00403" lon="5.89884">
        <ele>493.889</ele>
        <time>2022-10-26T10:25:40Z</time>
      </trkpt>
      <trkpt lat="46.00418" lon="5.89677">
        <ele>486.217</ele>
        <time>2022-10-26T10:25:50Z</time>
      </trkpt>
      <trkpt lat="46.00487" lon="5.89402">
        <ele>466.609</ele>
        <time>2022-10-26T10:26:10Z</time>
      </trkpt>
      <trkpt lat="46.00557" lon="5.8931">
        <ele>459.263</ele>
        <time>2022-10-26T10:26:19Z</time>
      </trkpt>
      <trkpt lat="46.00634" lon="5.8926">
        <ele>448.873</ele>
        <time>2022-10-26T10:26:28Z</time>
      </trkpt>
      <trkpt lat="46.00926" lon="5.88864">
        <ele>419.219</ele>
        <time>2022-10-26T10:27:01Z</time>
      </trkpt>
      <trkpt lat="46.01027" lon="5.88618">
        <ele>399.376</ele>
        <time>2022-10-26T10:27:29Z</time>
      </trkpt>
      <trkpt lat="46.01142" lon="5.88654">
        <ele>400.472</ele>
        <time>2022-10-26T10:27:41Z</time>
      </trkpt>
      <trkpt lat="46.0135" lon="5.88921">
        <ele>394.973</ele>
        <time>2022-10-26T10:28:03Z</time>
      </trkpt>
      <trkpt lat="46.01512" lon="5.89039">
        <ele>382.165</ele>
        <time>2022-10-26T10:28:18Z</time>
      </trkpt>
      <trkpt lat="46.0152" lon="5.89076">
        <ele>378.044</ele>
        <time>2022-10-26T10:28:22Z</time>
      </trkpt>
      <trkpt lat="46.01481" lon="5.89151">
        <ele>372.067</ele>
        <time>2022-10-26T10:28:29Z</time>
      </trkpt>
      <trkpt lat="46.01493" lon="5.89233">
        <ele>367.926</ele>
        <time>2022-10-26T10:28:36Z</time>
      </trkpt>
      <trkpt lat="46.01579" lon="5.89243">
        <ele>362.247</ele>
        <time>2022-10-26T10:28:46Z</time>
      </trkpt>
      <trkpt lat="46.01631" lon="5.89338">
        <ele>357.211</ele>
        <time>2022-10-26T10:28:56Z</time>
      </trkpt>
      <trkpt lat="46.01665" lon="5.89324">
        <ele>356.109</ele>
        <time>2022-10-26T10:29:01Z</time>
      </trkpt>
      <trkpt lat="46.01707" lon="5.89236">
        <ele>361.533</ele>
        <time>2022-10-26T10:29:08Z</time>
      </trkpt>
      <trkpt lat="46.01786" lon="5.88945">
        <ele>382.853</ele>
        <time>2022-10-26T10:29:30Z</time>
      </trkpt>
      <trkpt lat="46.01786" lon="5.89032">
        <ele>385.329</ele>
        <time>2022-10-26T10:29:44Z</time>
      </trkpt>
      <trkpt lat="46.02059" lon="5.89033">
        <ele>387.846</ele>
        <time>2022-10-26T10:30:12Z</time>
      </trkpt>
      <trkpt lat="46.02151" lon="5.89091">
        <ele>377.692</ele>
        <time>2022-10-26T10:30:23Z</time>
      </trkpt>
      <trkpt lat="46.02245" lon="5.89027">
        <ele>364.343</ele>
        <time>2022-10-26T10:30:35Z</time>
      </trkpt>
      <trkpt lat="46.02206" lon="5.88923">
        <ele>357.725</ele>
        <time>2022-10-26T10:30:47Z</time>
      </trkpt>
      <trkpt lat="46.02263" lon="5.88858">
        <ele>348.894</ele>
        <time>2022-10-26T10:30:55Z</time>
      </trkpt>
      <trkpt lat="46.02296" lon="5.88884">
        <ele>344.657</ele>
        <time>2022-10-26T10:30:59Z</time>
      </trkpt>
      <trkpt lat="46.02396" lon="5.89078">
        <ele>331.861</ele>
        <time>2022-10-26T10:31:14Z</time>
      </trkpt>
      <trkpt lat="46.02493" lon="5.891">
        <ele>323.721</ele>
        <time>2022-10-26T10:31:24Z</time>
      </trkpt>
      <trkpt lat="46.02502" lon="5.8898">
        <ele>315.513</ele>
        <time>2022-10-26T10:31:34Z</time>
      </trkpt>
      <trkpt lat="46.02464" lon="5.88842">
        <ele>306.809</ele>
        <time>2022-10-26T10:31:44Z</time>
      </trkpt>
      <trkpt lat="46.02569" lon="5.88655">
        <ele>296.237</ele>
        <time>2022-10-26T10:32:10Z</time>
      </trkpt>
      <trkpt lat="46.02401" lon="5.88412">
        <ele>299.617</ele>
        <time>2022-10-26T10:32:28Z</time>
      </trkpt>
      <trkpt lat="46.02272" lon="5.87962">
        <ele>293.243</ele>
        <time>2022-10-26T10:32:59Z</time>
      </trkpt>
      <trkpt lat="46.02385" lon="5.88382">
        <ele>296.55</ele>
        <time>2022-10-26T10:33:38Z</time>
      </trkpt>
      <trkpt lat="46.02489" lon="5.8828">
        <ele>302.786</ele>
        <time>2022-10-26T10:33:54Z</time>
      </trkpt>
      <trkpt lat="46.02514" lon="5.88022">
        <ele>329.177</ele>
        <time>2022-10-26T10:34:19Z</time>
      </trkpt>
      <trkpt lat="46.02649" lon="5.88123">
        <ele>357.449</ele>
        <time>2022-10-26T10:34:55Z</time>
      </trkpt>
      <trkpt lat="46.02698" lon="5.88131">
        <ele>361.338</ele>
        <time>2022-10-26T10:35:02Z</time>
      </trkpt>
      <trkpt lat="46.02754" lon="5.88023">
        <ele>375.471</ele>
        <time>2022-10-26T10:35:23Z</time>
      </trkpt>
      <trkpt lat="46.02825" lon="5.88023">
        <ele>387.693</ele>
        <time>2022-10-26T10:51:20Z</time>
      </trkpt>
      <trkpt lat="46.02822" lon="5.87996">
        <ele>387.965</ele>
        <time>2022-10-26T10:51:29Z</time>
      </trkpt>
      <trkpt lat="46.02926" lon="5.87888">
        <ele>399.921</ele>
        <time>2022-10-26T10:51:51Z</time>
      </trkpt>
      <trkpt lat="46.03054" lon="5.87914">
        <ele>421.309</ele>
        <time>2022-10-26T10:52:09Z</time>
      </trkpt>
      <trkpt lat="46.03115" lon="5.87864">
        <ele>434.13</ele>
        <time>2022-10-26T10:52:17Z</time>
      </trkpt>
      <trkpt lat="46.03246" lon="5.87561">
        <ele>457.39</ele>
        <time>2022-10-26T10:52:42Z</time>
      </trkpt>
      <trkpt lat="46.03407" lon="5.87293">
        <ele>473.336</ele>
        <time>2022-10-26T10:53:01Z</time>
      </trkpt>
      <trkpt lat="46.03507" lon="5.86917">
        <ele>488.333</ele>
        <time>2022-10-26T10:53:34Z</time>
      </trkpt>
      <trkpt lat="46.03482" lon="5.86888">
        <ele>489.379</ele>
        <time>2022-10-26T10:53:36Z</time>
      </trkpt>
      <trkpt lat="46.03494" lon="5.86799">
        <ele>492.55</ele>
        <time>2022-10-26T10:54:36Z</time>
      </trkpt>
      <trkpt lat="46.03488" lon="5.86954">
        <ele>488.742</ele>
        <time>2022-10-26T10:55:22Z</time>
      </trkpt>
      <trkpt lat="46.03679" lon="5.8661">
        <ele>501.841</ele>
        <time>2022-10-26T10:56:08Z</time>
      </trkpt>
      <trkpt lat="46.03862" lon="5.86336">
        <ele>506.764</ele>
        <time>2022-10-26T10:56:33Z</time>
      </trkpt>
      <trkpt lat="46.03933" lon="5.86263">
        <ele>508.466</ele>
        <time>2022-10-26T10:56:41Z</time>
      </trkpt>
      <trkpt lat="46.04198" lon="5.85761">
        <ele>517.629</ele>
        <time>2022-10-26T10:57:28Z</time>
      </trkpt>
      <trkpt lat="46.04251" lon="5.85766">
        <ele>516.621</ele>
        <time>2022-10-26T10:57:37Z</time>
      </trkpt>
      <trkpt lat="46.04249" lon="5.85729">
        <ele>516.509</ele>
        <time>2022-10-26T10:57:39Z</time>
      </trkpt>
      <trkpt lat="46.04425" lon="5.85428">
        <ele>523.677</ele>
        <time>2022-10-26T10:58:05Z</time>
      </trkpt>
      <trkpt lat="46.04525" lon="5.85095">
        <ele>527.087</ele>
        <time>2022-10-26T10:58:36Z</time>
      </trkpt>
      <trkpt lat="46.04457" lon="5.85022">
        <ele>530.393</ele>
        <time>2022-10-26T10:58:44Z</time>
      </trkpt>
      <trkpt lat="46.04294" lon="5.84918">
        <ele>538.61</ele>
        <time>2022-10-26T10:58:58Z</time>
      </trkpt>
      <trkpt lat="46.04085" lon="5.84489">
        <ele>528.436</ele>
        <time>2022-10-26T10:59:23Z</time>
      </trkpt>
      <trkpt lat="46.04068" lon="5.84394">
        <ele>523.717</ele>
        <time>2022-10-26T10:59:29Z</time>
      </trkpt>
      <trkpt lat="46.04452" lon="5.82964">
        <ele>495.479</ele>
        <time>2022-10-26T11:00:31Z</time>
      </trkpt>
      <trkpt lat="46.04491" lon="5.82882">
        <ele>493.228</ele>
        <time>2022-10-26T11:00:39Z</time>
      </trkpt>
      <trkpt lat="46.0449" lon="5.82819">
        <ele>492.321</ele>
        <time>2022-10-26T11:00:44Z</time>
      </trkpt>
      <trkpt lat="46.04596" lon="5.82583">
        <ele>488.516</ele>
        <time>2022-10-26T11:01:00Z</time>
      </trkpt>
      <trkpt lat="46.04602" lon="5.82506">
        <ele>485.676</ele>
        <time>2022-10-26T11:01:04Z</time>
      </trkpt>
      <trkpt lat="46.04576" lon="5.82401">
        <ele>481.813</ele>
        <time>2022-10-26T11:01:09Z</time>
      </trkpt>
      <trkpt lat="46.0458" lon="5.82336">
        <ele>479.509</ele>
        <time>2022-10-26T11:01:12Z</time>
      </trkpt>
      <trkpt lat="46.04728" lon="5.82087">
        <ele>483.392</ele>
        <time>2022-10-26T11:01:28Z</time>
      </trkpt>
      <trkpt lat="46.04774" lon="5.81783">
        <ele>475.722</ele>
        <time>2022-10-26T11:01:42Z</time>
      </trkpt>
      <trkpt lat="46.04908" lon="5.81666">
        <ele>466.988</ele>
        <time>2022-10-26T11:01:53Z</time>
      </trkpt>
      <trkpt lat="46.04976" lon="5.81676">
        <ele>461.695</ele>
        <time>2022-10-26T11:01:58Z</time>
      </trkpt>
      <trkpt lat="46.05146" lon="5.81763">
        <ele>448.411</ele>
        <time>2022-10-26T11:02:09Z</time>
      </trkpt>
      <trkpt lat="46.0519" lon="5.81742">
        <ele>440.682</ele>
        <time>2022-10-26T11:02:14Z</time>
      </trkpt>
      <trkpt lat="46.05186" lon="5.81672">
        <ele>438.774</ele>
        <time>2022-10-26T11:02:18Z</time>
      </trkpt>
      <trkpt lat="46.05099" lon="5.81669">
        <ele>435.153</ele>
        <time>2022-10-26T11:02:26Z</time>
      </trkpt>
      <trkpt lat="46.05055" lon="5.81595">
        <ele>429.976</ele>
        <time>2022-10-26T11:02:33Z</time>
      </trkpt>
      <trkpt lat="46.04993" lon="5.81565">
        <ele>424.724</ele>
        <time>2022-10-26T11:02:40Z</time>
      </trkpt>
      <trkpt lat="46.04988" lon="5.81478">
        <ele>422.304</ele>
        <time>2022-10-26T11:02:46Z</time>
      </trkpt>
      <trkpt lat="46.04845" lon="5.81386">
        <ele>411.314</ele>
        <time>2022-10-26T11:02:58Z</time>
      </trkpt>
      <trkpt lat="46.04793" lon="5.81267">
        <ele>398.909</ele>
        <time>2022-10-26T11:03:06Z</time>
      </trkpt>
      <trkpt lat="46.04646" lon="5.81226">
        <ele>390.713</ele>
        <time>2022-10-26T11:03:18Z</time>
      </trkpt>
      <trkpt lat="46.04635" lon="5.81193">
        <ele>387.313</ele>
        <time>2022-10-26T11:03:22Z</time>
      </trkpt>
      <trkpt lat="46.04648" lon="5.81176">
        <ele>385.979</ele>
        <time>2022-10-26T11:03:24Z</time>
      </trkpt>
      <trkpt lat="46.04712" lon="5.81215">
        <ele>384.056</ele>
        <time>2022-10-26T11:03:30Z</time>
      </trkpt>
      <trkpt lat="46.04828" lon="5.81209">
        <ele>380.132</ele>
        <time>2022-10-26T11:03:39Z</time>
      </trkpt>
      <trkpt lat="46.04883" lon="5.81289">
        <ele>373.633</ele>
        <time>2022-10-26T11:03:46Z</time>
      </trkpt>
      <trkpt lat="46.04966" lon="5.81302">
        <ele>367.715</ele>
        <time>2022-10-26T11:03:53Z</time>
      </trkpt>
      <trkpt lat="46.05094" lon="5.81433">
        <ele>353.314</ele>
        <time>2022-10-26T11:04:06Z</time>
      </trkpt>
      <trkpt lat="46.05163" lon="5.81389">
        <ele>345.897</ele>
        <time>2022-10-26T11:04:13Z</time>
      </trkpt>
      <trkpt lat="46.05207" lon="5.8141">
        <ele>340.752</ele>
        <time>2022-10-26T11:04:18Z</time>
      </trkpt>
      <trkpt lat="46.05236" lon="5.81394">
        <ele>338.653</ele>
        <time>2022-10-26T11:04:21Z</time>
      </trkpt>
      <trkpt lat="46.05276" lon="5.81181">
        <ele>337.608</ele>
        <time>2022-10-26T11:04:37Z</time>
      </trkpt>
      <trkpt lat="46.05157" lon="5.81083">
        <ele>338.209</ele>
        <time>2022-10-26T11:04:49Z</time>
      </trkpt>
      <trkpt lat="46.05035" lon="5.8104">
        <ele>338.536</ele>
        <time>2022-10-26T11:04:59Z</time>
      </trkpt>
      <trkpt lat="46.05035" lon="5.80907">
        <ele>340.416</ele>
        <time>2022-10-26T11:05:08Z</time>
      </trkpt>
      <trkpt lat="46.0507" lon="5.80873">
        <ele>340.782</ele>
        <time>2022-10-26T11:05:12Z</time>
      </trkpt>
      <trkpt lat="46.05207" lon="5.80987">
        <ele>349.279</ele>
        <time>2022-10-26T11:05:26Z</time>
      </trkpt>
      <trkpt lat="46.05242" lon="5.80962">
        <ele>350.675</ele>
        <time>2022-10-26T11:05:30Z</time>
      </trkpt>
      <trkpt lat="46.05239" lon="5.80895">
        <ele>352.646</ele>
        <time>2022-10-26T11:05:34Z</time>
      </trkpt>
      <trkpt lat="46.05173" lon="5.80801">
        <ele>356.868</ele>
        <time>2022-10-26T11:05:41Z</time>
      </trkpt>
      <trkpt lat="46.05145" lon="5.8063">
        <ele>359.037</ele>
        <time>2022-10-26T11:05:53Z</time>
      </trkpt>
      <trkpt lat="46.05179" lon="5.80478">
        <ele>363.65</ele>
        <time>2022-10-26T11:06:03Z</time>
      </trkpt>
      <trkpt lat="46.05171" lon="5.80405">
        <ele>366.796</ele>
        <time>2022-10-26T11:06:09Z</time>
      </trkpt>
      <trkpt lat="46.05219" lon="5.80112">
        <ele>381.831</ele>
        <time>2022-10-26T11:06:31Z</time>
      </trkpt>
      <trkpt lat="46.05359" lon="5.79817">
        <ele>407.824</ele>
        <time>2022-10-26T11:06:59Z</time>
      </trkpt>
      <trkpt lat="46.05381" lon="5.79809">
        <ele>411.409</ele>
        <time>2022-10-26T11:07:02Z</time>
      </trkpt>
      <trkpt lat="46.0542" lon="5.79916">
        <ele>421.17</ele>
        <time>2022-10-26T11:07:11Z</time>
      </trkpt>
      <trkpt lat="46.05463" lon="5.79938">
        <ele>423.26</ele>
        <time>2022-10-26T11:07:19Z</time>
      </trkpt>
      <trkpt lat="46.05437" lon="5.7983">
        <ele>426.466</ele>
        <time>2022-10-26T11:07:30Z</time>
      </trkpt>
      <trkpt lat="46.05442" lon="5.79727">
        <ele>427.063</ele>
        <time>2022-10-26T11:07:53Z</time>
      </trkpt>
      <trkpt lat="46.05531" lon="5.79694">
        <ele>439.519</ele>
        <time>2022-10-26T11:08:05Z</time>
      </trkpt>
      <trkpt lat="46.05664" lon="5.79538">
        <ele>464.74</ele>
        <time>2022-10-26T11:08:28Z</time>
      </trkpt>
      <trkpt lat="46.05845" lon="5.79524">
        <ele>479.582</ele>
        <time>2022-10-26T11:08:45Z</time>
      </trkpt>
      <trkpt lat="46.06013" lon="5.79439">
        <ele>491.781</ele>
        <time>2022-10-26T11:09:03Z</time>
      </trkpt>
      <trkpt lat="46.06254" lon="5.79182">
        <ele>502.544</ele>
        <time>2022-10-26T11:09:28Z</time>
      </trkpt>
      <trkpt lat="46.0636" lon="5.79137">
        <ele>510.214</ele>
        <time>2022-10-26T11:09:38Z</time>
      </trkpt>
      <trkpt lat="46.06591" lon="5.7915">
        <ele>516.054</ele>
        <time>2022-10-26T11:10:11Z</time>
      </trkpt>
      <trkpt lat="46.06653" lon="5.79057">
        <ele>520.209</ele>
        <time>2022-10-26T11:10:21Z</time>
      </trkpt>
      <trkpt lat="46.07094" lon="5.78987">
        <ele>503.609</ele>
        <time>2022-10-26T11:12:23Z</time>
      </trkpt>
      <trkpt lat="46.07186" lon="5.78892">
        <ele>503.352</ele>
        <time>2022-10-26T11:12:47Z</time>
      </trkpt>
      <trkpt lat="46.07265" lon="5.78864">
        <ele>506.782</ele>
        <time>2022-10-26T11:13:01Z</time>
      </trkpt>
      <trkpt lat="46.0762" lon="5.78953">
        <ele>521.218</ele>
        <time>2022-10-26T11:14:09Z</time>
      </trkpt>
      <trkpt lat="46.0776" lon="5.78398">
        <ele>547.265</ele>
        <time>2022-10-26T11:16:02Z</time>
      </trkpt>
      <trkpt lat="46.08334" lon="5.77658">
        <ele>525.481</ele>
        <time>2022-10-26T11:17:05Z</time>
      </trkpt>
      <trkpt lat="46.08447" lon="5.77799">
        <ele>530.442</ele>
        <time>2022-10-26T11:17:21Z</time>
      </trkpt>
      <trkpt lat="46.08554" lon="5.7786">
        <ele>524.644</ele>
        <time>2022-10-26T11:17:32Z</time>
      </trkpt>
      <trkpt lat="46.08599" lon="5.78168">
        <ele>525.173</ele>
        <time>2022-10-26T11:17:50Z</time>
      </trkpt>
      <trkpt lat="46.08676" lon="5.78292">
        <ele>529.996</ele>
        <time>2022-10-26T11:18:02Z</time>
      </trkpt>
      <trkpt lat="46.08671" lon="5.78455">
        <ele>537.872</ele>
        <time>2022-10-26T11:18:16Z</time>
      </trkpt>
      <trkpt lat="46.08809" lon="5.78467">
        <ele>543.313</ele>
        <time>2022-10-26T11:18:31Z</time>
      </trkpt>
      <trkpt lat="46.0889" lon="5.78512">
        <ele>544.314</ele>
        <time>2022-10-26T11:18:41Z</time>
      </trkpt>
      <trkpt lat="46.09123" lon="5.78311">
        <ele>560.509</ele>
        <time>2022-10-26T11:19:12Z</time>
      </trkpt>
      <trkpt lat="46.09163" lon="5.78309">
        <ele>560.268</ele>
        <time>2022-10-26T11:19:18Z</time>
      </trkpt>
      <trkpt lat="46.09355" lon="5.78166">
        <ele>571.468</ele>
        <time>2022-10-26T11:19:45Z</time>
      </trkpt>
      <trkpt lat="46.09379" lon="5.78101">
        <ele>570.984</ele>
        <time>2022-10-26T11:19:52Z</time>
      </trkpt>
      <trkpt lat="46.09436" lon="5.78084">
        <ele>570.081</ele>
        <time>2022-10-26T11:20:00Z</time>
      </trkpt>
      <trkpt lat="46.09498" lon="5.77987">
        <ele>572.337</ele>
        <time>2022-10-26T11:20:11Z</time>
      </trkpt>
      <trkpt lat="46.09738" lon="5.77953">
        <ele>572.998</ele>
        <time>2022-10-26T11:20:45Z</time>
      </trkpt>
      <trkpt lat="46.09922" lon="5.77819">
        <ele>567.68</ele>
        <time>2022-10-26T11:21:13Z</time>
      </trkpt>
      <trkpt lat="46.10001" lon="5.77798">
        <ele>568.049</ele>
        <time>2022-10-26T11:21:27Z</time>
      </trkpt>
      <trkpt lat="46.10038" lon="5.77733">
        <ele>568.222</ele>
        <time>2022-10-26T11:21:46Z</time>
      </trkpt>
      <trkpt lat="46.10095" lon="5.77694">
        <ele>570.745</ele>
        <time>2022-10-26T11:21:58Z</time>
      </trkpt>
      <trkpt lat="46.1071" lon="5.77879">
        <ele>573.947</ele>
        <time>2022-10-26T11:22:57Z</time>
      </trkpt>
      <trkpt lat="46.1073" lon="5.77906">
        <ele>574.111</ele>
        <time>2022-10-26T11:23:03Z</time>
      </trkpt>
      <trkpt lat="46.10813" lon="5.77857">
        <ele>578.709</ele>
        <time>2022-10-26T11:23:27Z</time>
      </trkpt>
      <trkpt lat="46.10919" lon="5.77856">
        <ele>595.185</ele>
        <time>2022-10-26T11:23:46Z</time>
      </trkpt>
      <trkpt lat="46.10998" lon="5.77809">
        <ele>598.875</ele>
        <time>2022-10-26T11:23:54Z</time>
      </trkpt>
      <trkpt lat="46.1119" lon="5.77797">
        <ele>610.711</ele>
        <time>2022-10-26T11:24:10Z</time>
      </trkpt>
      <trkpt lat="46.1124" lon="5.77768">
        <ele>614.218</ele>
        <time>2022-10-26T11:24:15Z</time>
      </trkpt>
      <trkpt lat="46.11461" lon="5.77765">
        <ele>631.584</ele>
        <time>2022-10-26T11:24:39Z</time>
      </trkpt>
      <trkpt lat="46.11708" lon="5.77822">
        <ele>652.025</ele>
        <time>2022-10-26T11:24:56Z</time>
      </trkpt>
      <trkpt lat="46.11804" lon="5.7777">
        <ele>658.747</ele>
        <time>2022-10-26T11:25:04Z</time>
      </trkpt>
      <trkpt lat="46.11892" lon="5.77806">
        <ele>665.326</ele>
        <time>2022-10-26T11:25:11Z</time>
      </trkpt>
      <trkpt lat="46.12198" lon="5.77834">
        <ele>686.069</ele>
        <time>2022-10-26T11:25:31Z</time>
      </trkpt>
      <trkpt lat="46.12586" lon="5.77778">
        <ele>716.236</ele>
        <time>2022-10-26T11:25:57Z</time>
      </trkpt>
      <trkpt lat="46.12709" lon="5.77803">
        <ele>723.717</ele>
        <time>2022-10-26T11:26:05Z</time>
      </trkpt>
      <trkpt lat="46.12918" lon="5.77765">
        <ele>740.218</ele>
        <time>2022-10-26T11:26:25Z</time>
      </trkpt>
      <trkpt lat="46.13002" lon="5.77856">
        <ele>740.209</ele>
        <time>2022-10-26T11:26:38Z</time>
      </trkpt>
      <trkpt lat="46.13032" lon="5.77928">
        <ele>736.124</ele>
        <time>2022-10-26T11:26:45Z</time>
      </trkpt>
      <trkpt lat="46.13163" lon="5.78058">
        <ele>723.954</ele>
        <time>2022-10-26T11:27:07Z</time>
      </trkpt>
      <trkpt lat="46.13197" lon="5.7803">
        <ele>721.04</ele>
        <time>2022-10-26T11:27:17Z</time>
      </trkpt>
      <trkpt lat="46.13232" lon="5.78073">
        <ele>725.487</ele>
        <time>2022-10-26T11:27:25Z</time>
      </trkpt>
      <trkpt lat="46.13337" lon="5.78047">
        <ele>732.643</ele>
        <time>2022-10-26T11:27:35Z</time>
      </trkpt>
      <trkpt lat="46.13472" lon="5.78063">
        <ele>742.644</ele>
        <time>2022-10-26T11:27:47Z</time>
      </trkpt>
      <trkpt lat="46.13604" lon="5.78021">
        <ele>749.796</ele>
        <time>2022-10-26T11:28:01Z</time>
      </trkpt>
      <trkpt lat="46.13805" lon="5.77868">
        <ele>757.025</ele>
        <time>2022-10-26T11:28:31Z</time>
      </trkpt>
      <trkpt lat="46.1402" lon="5.7787">
        <ele>761.448</ele>
        <time>2022-10-26T11:28:53Z</time>
      </trkpt>
      <trkpt lat="46.14107" lon="5.77906">
        <ele>764.477</ele>
        <time>2022-10-26T11:29:06Z</time>
      </trkpt>
      <trkpt lat="46.14216" lon="5.7784">
        <ele>771.161</ele>
        <time>2022-10-26T11:29:24Z</time>
      </trkpt>
      <trkpt lat="46.14311" lon="5.77837">
        <ele>776.927</ele>
        <time>2022-10-26T11:29:37Z</time>
      </trkpt>
      <trkpt lat="46.14541" lon="5.77758">
        <ele>792.809</ele>
        <time>2022-10-26T11:30:10Z</time>
      </trkpt>
      <trkpt lat="46.14584" lon="5.77698">
        <ele>796.198</ele>
        <time>2022-10-26T11:30:18Z</time>
      </trkpt>
      <trkpt lat="46.1468" lon="5.77395">
        <ele>807.088</ele>
        <time>2022-10-26T11:30:47Z</time>
      </trkpt>
      <trkpt lat="46.14708" lon="5.77355">
        <ele>808.314</ele>
        <time>2022-10-26T11:30:52Z</time>
      </trkpt>
      <trkpt lat="46.14799" lon="5.77313">
        <ele>810.431</ele>
        <time>2022-10-26T11:31:04Z</time>
      </trkpt>
      <trkpt lat="46.14884" lon="5.77319">
        <ele>812.137</ele>
        <time>2022-10-26T11:31:13Z</time>
      </trkpt>
      <trkpt lat="46.14945" lon="5.77264">
        <ele>815.068</ele>
        <time>2022-10-26T11:31:22Z</time>
      </trkpt>
      <trkpt lat="46.14906" lon="5.77204">
        <ele>818.13</ele>
        <time>2022-10-26T11:31:31Z</time>
      </trkpt>
      <trkpt lat="46.14956" lon="5.77174">
        <ele>819.099</ele>
        <time>2022-10-26T11:31:32Z</time>
      </trkpt>
      <trkpt lat="46.14963" lon="5.77102">
        <ele>822.232</ele>
        <time>2022-10-26T11:31:39Z</time>
      </trkpt>
      <trkpt lat="46.15062" lon="5.77025">
        <ele>828.664</ele>
        <time>2022-10-26T11:31:52Z</time>
      </trkpt>
      <trkpt lat="46.15113" lon="5.77027">
        <ele>832.506</ele>
        <time>2022-10-26T11:32:00Z</time>
      </trkpt>
      <trkpt lat="46.15148" lon="5.77059">
        <ele>834.216</ele>
        <time>2022-10-26T11:32:06Z</time>
      </trkpt>
      <trkpt lat="46.15289" lon="5.77096">
        <ele>840.009</ele>
        <time>2022-10-26T11:32:23Z</time>
      </trkpt>
      <trkpt lat="46.15501" lon="5.76983">
        <ele>853.857</ele>
        <time>2022-10-26T11:35:10Z</time>
      </trkpt>
      <trkpt lat="46.15577" lon="5.7691">
        <ele>857.757</ele>
        <time>2022-10-26T11:35:23Z</time>
      </trkpt>
      <trkpt lat="46.15582" lon="5.76794">
        <ele>859.693</ele>
        <time>2022-10-26T11:35:39Z</time>
      </trkpt>
      <trkpt lat="46.15536" lon="5.76496">
        <ele>861.66</ele>
        <time>2022-10-26T11:36:16Z</time>
      </trkpt>
      <trkpt lat="46.15605" lon="5.7634">
        <ele>862.766</ele>
        <time>2022-10-26T11:36:33Z</time>
      </trkpt>
      <trkpt lat="46.15593" lon="5.76264">
        <ele>862.317</ele>
        <time>2022-10-26T11:36:42Z</time>
      </trkpt>
      <trkpt lat="46.15607" lon="5.76128">
        <ele>863.299</ele>
        <time>2022-10-26T11:36:54Z</time>
      </trkpt>
      <trkpt lat="46.15638" lon="5.76066">
        <ele>863.118</ele>
        <time>2022-10-26T11:37:01Z</time>
      </trkpt>
      <trkpt lat="46.1564" lon="5.75995">
        <ele>863.961</ele>
        <time>2022-10-26T11:37:08Z</time>
      </trkpt>
      <trkpt lat="46.15683" lon="5.75882">
        <ele>864.873</ele>
        <time>2022-10-26T11:37:19Z</time>
      </trkpt>
      <trkpt lat="46.15688" lon="5.75686">
        <ele>863.985</ele>
        <time>2022-10-26T11:37:37Z</time>
      </trkpt>
      <trkpt lat="46.15298" lon="5.75294">
        <ele>861.813</ele>
        <time>2022-10-26T11:38:36Z</time>
      </trkpt>
      <trkpt lat="46.15049" lon="5.7514">
        <ele>855.909</ele>
        <time>2022-10-26T11:39:04Z</time>
      </trkpt>
      <trkpt lat="46.14909" lon="5.75113">
        <ele>850.618</ele>
        <time>2022-10-26T11:39:17Z</time>
      </trkpt>
      <trkpt lat="46.14433" lon="5.74786">
        <ele>862.528</ele>
        <time>2022-10-26T11:40:10Z</time>
      </trkpt>
      <trkpt lat="46.1432" lon="5.74627">
        <ele>853.454</ele>
        <time>2022-10-26T11:40:35Z</time>
      </trkpt>
      <trkpt lat="46.14283" lon="5.74472">
        <ele>844.251</ele>
        <time>2022-10-26T11:40:55Z</time>
      </trkpt>
      <trkpt lat="46.14221" lon="5.74424">
        <ele>838.577</ele>
        <time>2022-10-26T11:41:08Z</time>
      </trkpt>
      <trkpt lat="46.14218" lon="5.74384">
        <ele>834.198</ele>
        <time>2022-10-26T11:41:16Z</time>
      </trkpt>
      <trkpt lat="46.14263" lon="5.74386">
        <ele>826.78</ele>
        <time>2022-10-26T11:41:32Z</time>
      </trkpt>
      <trkpt lat="46.14375" lon="5.74522">
        <ele>811.789</ele>
        <time>2022-10-26T11:42:01Z</time>
      </trkpt>
      <trkpt lat="46.14435" lon="5.74556">
        <ele>804.822</ele>
        <time>2022-10-26T11:42:11Z</time>
      </trkpt>
      <trkpt lat="46.14462" lon="5.74612">
        <ele>799.646</ele>
        <time>2022-10-26T11:42:20Z</time>
      </trkpt>
      <trkpt lat="46.147" lon="5.7475">
        <ele>772.088</ele>
        <time>2022-10-26T11:42:50Z</time>
      </trkpt>
      <trkpt lat="46.1477" lon="5.74743">
        <ele>764.016</ele>
        <time>2022-10-26T11:43:01Z</time>
      </trkpt>
      <trkpt lat="46.14804" lon="5.74808">
        <ele>757.109</ele>
        <time>2022-10-26T11:43:11Z</time>
      </trkpt>
      <trkpt lat="46.14959" lon="5.74863">
        <ele>739.985</ele>
        <time>2022-10-26T11:43:34Z</time>
      </trkpt>
      <trkpt lat="46.14981" lon="5.74825">
        <ele>737.145</ele>
        <time>2022-10-26T11:43:37Z</time>
      </trkpt>
      <trkpt lat="46.14996" lon="5.74873">
        <ele>735.081</ele>
        <time>2022-10-26T11:43:38Z</time>
      </trkpt>
      <trkpt lat="46.15038" lon="5.74894">
        <ele>730.668</ele>
        <time>2022-10-26T11:43:44Z</time>
      </trkpt>
      <trkpt lat="46.15103" lon="5.74879">
        <ele>723.594</ele>
        <time>2022-10-26T11:43:52Z</time>
      </trkpt>
      <trkpt lat="46.15148" lon="5.74816">
        <ele>715.425</ele>
        <time>2022-10-26T11:44:01Z</time>
      </trkpt>
      <trkpt lat="46.15187" lon="5.74831">
        <ele>708.837</ele>
        <time>2022-10-26T11:44:13Z</time>
      </trkpt>
      <trkpt lat="46.15256" lon="5.74799">
        <ele>701.086</ele>
        <time>2022-10-26T11:44:27Z</time>
      </trkpt>
      <trkpt lat="46.1536" lon="5.74694">
        <ele>690.639</ele>
        <time>2022-10-26T11:44:45Z</time>
      </trkpt>
      <trkpt lat="46.15451" lon="5.74727">
        <ele>683.187</ele>
        <time>2022-10-26T11:45:00Z</time>
      </trkpt>
      <trkpt lat="46.15494" lon="5.74822">
        <ele>675.142</ele>
        <time>2022-10-26T11:45:13Z</time>
      </trkpt>
      <trkpt lat="46.1561" lon="5.74966">
        <ele>659.926</ele>
        <time>2022-10-26T11:45:36Z</time>
      </trkpt>
      <trkpt lat="46.1568" lon="5.74959">
        <ele>653.009</ele>
        <time>2022-10-26T11:45:44Z</time>
      </trkpt>
      <trkpt lat="46.15824" lon="5.74773">
        <ele>636.179</ele>
        <time>2022-10-26T11:46:08Z</time>
      </trkpt>
      <trkpt lat="46.15886" lon="5.74829">
        <ele>627.999</ele>
        <time>2022-10-26T11:46:20Z</time>
      </trkpt>
      <trkpt lat="46.16019" lon="5.74869">
        <ele>614.025</ele>
        <time>2022-10-26T11:46:42Z</time>
      </trkpt>
      <trkpt lat="46.16039" lon="5.74831">
        <ele>611.852</ele>
        <time>2022-10-26T11:46:46Z</time>
      </trkpt>
      <trkpt lat="46.16031" lon="5.74762">
        <ele>608.438</ele>
        <time>2022-10-26T11:46:53Z</time>
      </trkpt>
      <trkpt lat="46.16068" lon="5.74732">
        <ele>603.749</ele>
        <time>2022-10-26T11:47:01Z</time>
      </trkpt>
      <trkpt lat="46.16141" lon="5.7487">
        <ele>592.321</ele>
        <time>2022-10-26T11:47:20Z</time>
      </trkpt>
      <trkpt lat="46.16174" lon="5.74891">
        <ele>588.08</ele>
        <time>2022-10-26T11:47:26Z</time>
      </trkpt>
      <trkpt lat="46.1627" lon="5.75047">
        <ele>575.153</ele>
        <time>2022-10-26T11:47:45Z</time>
      </trkpt>
      <trkpt lat="46.16254" lon="5.75136">
        <ele>566.957</ele>
        <time>2022-10-26T11:47:57Z</time>
      </trkpt>
      <trkpt lat="46.16372" lon="5.75314">
        <ele>550.3</ele>
        <time>2022-10-26T11:48:19Z</time>
      </trkpt>
      <trkpt lat="46.16449" lon="5.75328">
        <ele>539.62</ele>
        <time>2022-10-26T11:48:30Z</time>
      </trkpt>
      <trkpt lat="46.16474" lon="5.75597">
        <ele>518.209</ele>
        <time>2022-10-26T11:48:55Z</time>
      </trkpt>
      <trkpt lat="46.16531" lon="5.75732">
        <ele>502.956</ele>
        <time>2022-10-26T11:49:45Z</time>
      </trkpt>
      <trkpt lat="46.16495" lon="5.75927">
        <ele>490.396</ele>
        <time>2022-10-26T11:50:00Z</time>
      </trkpt>
      <trkpt lat="46.16469" lon="5.75953">
        <ele>485.942</ele>
        <time>2022-10-26T11:50:04Z</time>
      </trkpt>
      <trkpt lat="46.16486" lon="5.76035">
        <ele>473.959</ele>
        <time>2022-10-26T11:50:13Z</time>
      </trkpt>
      <trkpt lat="46.16444" lon="5.76183">
        <ele>456.255</ele>
        <time>2022-10-26T11:50:28Z</time>
      </trkpt>
      <trkpt lat="46.16375" lon="5.76656">
        <ele>437.576</ele>
        <time>2022-10-26T11:51:05Z</time>
      </trkpt>
      <trkpt lat="46.16419" lon="5.76717">
        <ele>436.668</ele>
        <time>2022-10-26T11:51:11Z</time>
      </trkpt>
      <trkpt lat="46.16467" lon="5.76867">
        <ele>432.567</ele>
        <time>2022-10-26T11:51:25Z</time>
      </trkpt>
      <trkpt lat="46.16551" lon="5.76464">
        <ele>431.78</ele>
        <time>2022-10-26T11:52:06Z</time>
      </trkpt>
      <trkpt lat="46.16702" lon="5.76304">
        <ele>436.287</ele>
        <time>2022-10-26T11:52:36Z</time>
      </trkpt>
      <trkpt lat="46.16565" lon="5.76472">
        <ele>432.942</ele>
        <time>2022-10-26T11:56:06Z</time>
      </trkpt>
      <trkpt lat="46.16507" lon="5.767">
        <ele>427.626</ele>
        <time>2022-10-26T11:59:48Z</time>
      </trkpt>
      <trkpt lat="46.16511" lon="5.76673">
        <ele>426.709</ele>
        <time>2022-10-26T12:02:28Z</time>
      </trkpt>
      <trkpt lat="46.165" lon="5.76685">
        <ele>426.369</ele>
        <time>2022-10-26T12:09:21Z</time>
      </trkpt>
      <trkpt lat="46.1652" lon="5.76669">
        <ele>425.579</ele>
        <time>2022-10-26T12:22:01Z</time>
      </trkpt>
      <trkpt lat="46.16473" lon="5.76857">
        <ele>429.115</ele>
        <time>2022-10-26T12:28:56Z</time>
      </trkpt>
      <trkpt lat="46.16383" lon="5.76643">
        <ele>433.992</ele>
        <time>2022-10-26T12:29:20Z</time>
      </trkpt>
      <trkpt lat="46.16413" lon="5.7645">
        <ele>435.218</ele>
        <time>2022-10-26T12:29:31Z</time>
      </trkpt>
      <trkpt lat="46.16494" lon="5.76265">
        <ele>434.389</ele>
        <time>2022-10-26T12:29:41Z</time>
      </trkpt>
      <trkpt lat="46.16646" lon="5.76086">
        <ele>434.721</ele>
        <time>2022-10-26T12:29:52Z</time>
      </trkpt>
      <trkpt lat="46.16803" lon="5.75764">
        <ele>440.33</ele>
        <time>2022-10-26T12:30:07Z</time>
      </trkpt>
      <trkpt lat="46.16887" lon="5.7546">
        <ele>450.473</ele>
        <time>2022-10-26T12:30:20Z</time>
      </trkpt>
      <trkpt lat="46.17047" lon="5.75028">
        <ele>463.843</ele>
        <time>2022-10-26T12:30:38Z</time>
      </trkpt>
      <trkpt lat="46.17126" lon="5.74914">
        <ele>468.064</ele>
        <time>2022-10-26T12:30:44Z</time>
      </trkpt>
      <trkpt lat="46.17181" lon="5.74777">
        <ele>471.71</ele>
        <time>2022-10-26T12:30:50Z</time>
      </trkpt>
      <trkpt lat="46.17303" lon="5.7466">
        <ele>476.609</ele>
        <time>2022-10-26T12:30:58Z</time>
      </trkpt>
      <trkpt lat="46.17497" lon="5.7454">
        <ele>480.595</ele>
        <time>2022-10-26T12:31:10Z</time>
      </trkpt>
      <trkpt lat="46.17549" lon="5.74404">
        <ele>484.465</ele>
        <time>2022-10-26T12:31:17Z</time>
      </trkpt>
      <trkpt lat="46.17669" lon="5.74207">
        <ele>485.331</ele>
        <time>2022-10-26T12:31:33Z</time>
      </trkpt>
      <trkpt lat="46.17736" lon="5.73948">
        <ele>493.948</ele>
        <time>2022-10-26T12:31:53Z</time>
      </trkpt>
      <trkpt lat="46.17806" lon="5.73844">
        <ele>503.444</ele>
        <time>2022-10-26T12:32:05Z</time>
      </trkpt>
      <trkpt lat="46.17857" lon="5.73859">
        <ele>505.985</ele>
        <time>2022-10-26T12:32:20Z</time>
      </trkpt>
      <trkpt lat="46.18257" lon="5.73743">
        <ele>518.757</ele>
        <time>2022-10-26T12:32:54Z</time>
      </trkpt>
      <trkpt lat="46.18355" lon="5.73766">
        <ele>523.246</ele>
        <time>2022-10-26T12:33:01Z</time>
      </trkpt>
      <trkpt lat="46.18466" lon="5.73724">
        <ele>529.219</ele>
        <time>2022-10-26T12:33:09Z</time>
      </trkpt>
      <trkpt lat="46.18512" lon="5.73661">
        <ele>532.094</ele>
        <time>2022-10-26T12:33:14Z</time>
      </trkpt>
      <trkpt lat="46.18563" lon="5.73392">
        <ele>542.257</ele>
        <time>2022-10-26T12:33:28Z</time>
      </trkpt>
      <trkpt lat="46.18588" lon="5.73339">
        <ele>543.522</ele>
        <time>2022-10-26T12:33:34Z</time>
      </trkpt>
      <trkpt lat="46.18614" lon="5.73373">
        <ele>544.509</ele>
        <time>2022-10-26T12:33:38Z</time>
      </trkpt>
      <trkpt lat="46.18627" lon="5.73472">
        <ele>548.38</ele>
        <time>2022-10-26T12:33:45Z</time>
      </trkpt>
      <trkpt lat="46.1868" lon="5.73583">
        <ele>553.45</ele>
        <time>2022-10-26T12:33:55Z</time>
      </trkpt>
      <trkpt lat="46.18694" lon="5.73577">
        <ele>553.486</ele>
        <time>2022-10-26T12:33:58Z</time>
      </trkpt>
      <trkpt lat="46.18659" lon="5.7333">
        <ele>568.163</ele>
        <time>2022-10-26T12:34:14Z</time>
      </trkpt>
      <trkpt lat="46.18684" lon="5.7315">
        <ele>582.819</ele>
        <time>2022-10-26T12:34:26Z</time>
      </trkpt>
      <trkpt lat="46.18703" lon="5.73298">
        <ele>593.47</ele>
        <time>2022-10-26T12:34:37Z</time>
      </trkpt>
      <trkpt lat="46.18815" lon="5.73633">
        <ele>618.752</ele>
        <time>2022-10-26T12:34:57Z</time>
      </trkpt>
      <trkpt lat="46.18844" lon="5.73628">
        <ele>621.131</ele>
        <time>2022-10-26T12:35:01Z</time>
      </trkpt>
      <trkpt lat="46.18804" lon="5.73529">
        <ele>630.344</ele>
        <time>2022-10-26T12:35:10Z</time>
      </trkpt>
      <trkpt lat="46.18799" lon="5.73224">
        <ele>650.875</ele>
        <time>2022-10-26T12:35:25Z</time>
      </trkpt>
      <trkpt lat="46.1884" lon="5.72766">
        <ele>681.528</ele>
        <time>2022-10-26T12:35:46Z</time>
      </trkpt>
      <trkpt lat="46.18906" lon="5.7245">
        <ele>704.92</ele>
        <time>2022-10-26T12:36:03Z</time>
      </trkpt>
      <trkpt lat="46.18957" lon="5.72326">
        <ele>715.709</ele>
        <time>2022-10-26T12:36:11Z</time>
      </trkpt>
      <trkpt lat="46.18931" lon="5.72138">
        <ele>728.568</ele>
        <time>2022-10-26T12:36:22Z</time>
      </trkpt>
      <trkpt lat="46.1895" lon="5.72124">
        <ele>730.278</ele>
        <time>2022-10-26T12:36:25Z</time>
      </trkpt>
      <trkpt lat="46.18985" lon="5.7217">
        <ele>733.024</ele>
        <time>2022-10-26T12:36:30Z</time>
      </trkpt>
      <trkpt lat="46.19037" lon="5.72166">
        <ele>736.621</ele>
        <time>2022-10-26T12:36:35Z</time>
      </trkpt>
      <trkpt lat="46.1908" lon="5.72247">
        <ele>742.817</ele>
        <time>2022-10-26T12:36:41Z</time>
      </trkpt>
      <trkpt lat="46.19069" lon="5.72441">
        <ele>754.428</ele>
        <time>2022-10-26T12:36:52Z</time>
      </trkpt>
      <trkpt lat="46.19133" lon="5.72665">
        <ele>765.07</ele>
        <time>2022-10-26T12:37:10Z</time>
      </trkpt>
      <trkpt lat="46.1919" lon="5.72263">
        <ele>773.939</ele>
        <time>2022-10-26T12:37:36Z</time>
      </trkpt>
      <trkpt lat="46.1919" lon="5.72136">
        <ele>777.422</ele>
        <time>2022-10-26T12:37:43Z</time>
      </trkpt>
      <trkpt lat="46.19043" lon="5.71788">
        <ele>785.574</ele>
        <time>2022-10-26T12:38:05Z</time>
      </trkpt>
      <trkpt lat="46.18957" lon="5.71668">
        <ele>784.756</ele>
        <time>2022-10-26T12:38:17Z</time>
      </trkpt>
      <trkpt lat="46.18937" lon="5.71548">
        <ele>784.921</ele>
        <time>2022-10-26T12:38:25Z</time>
      </trkpt>
      <trkpt lat="46.1887" lon="5.71483">
        <ele>786.909</ele>
        <time>2022-10-26T12:38:33Z</time>
      </trkpt>
      <trkpt lat="46.18843" lon="5.71389">
        <ele>788.148</ele>
        <time>2022-10-26T12:38:41Z</time>
      </trkpt>
      <trkpt lat="46.18765" lon="5.71347">
        <ele>786.828</ele>
        <time>2022-10-26T12:38:53Z</time>
      </trkpt>
      <trkpt lat="46.18709" lon="5.71358">
        <ele>787.114</ele>
        <time>2022-10-26T12:39:02Z</time>
      </trkpt>
      <trkpt lat="46.18677" lon="5.71441">
        <ele>789.831</ele>
        <time>2022-10-26T12:39:57Z</time>
      </trkpt>
      <trkpt lat="46.18636" lon="5.71422">
        <ele>791.527</ele>
        <time>2022-10-26T12:40:03Z</time>
      </trkpt>
      <trkpt lat="46.18491" lon="5.71506">
        <ele>804.068</ele>
        <time>2022-10-26T12:40:43Z</time>
      </trkpt>
      <trkpt lat="46.1835" lon="5.71452">
        <ele>803.32</ele>
        <time>2022-10-26T12:41:18Z</time>
      </trkpt>
      <trkpt lat="46.18291" lon="5.71698">
        <ele>793.039</ele>
        <time>2022-10-26T12:42:43Z</time>
      </trkpt>
      <trkpt lat="46.18344" lon="5.71462">
        <ele>800.452</ele>
        <time>2022-10-26T12:43:32Z</time>
      </trkpt>
      <trkpt lat="46.18296" lon="5.71451">
        <ele>800.741</ele>
        <time>2022-10-26T12:45:13Z</time>
      </trkpt>
      <trkpt lat="46.1822" lon="5.71376">
        <ele>793.681</ele>
        <time>2022-10-26T12:45:54Z</time>
      </trkpt>
      <trkpt lat="46.18062" lon="5.7101">
        <ele>793.009</ele>
        <time>2022-10-26T12:46:48Z</time>
      </trkpt>
      <trkpt lat="46.17991" lon="5.70946">
        <ele>789.309</ele>
        <time>2022-10-26T12:47:22Z</time>
      </trkpt>
      <trkpt lat="46.17992" lon="5.70812">
        <ele>797.645</ele>
        <time>2022-10-26T12:47:41Z</time>
      </trkpt>
      <trkpt lat="46.18018" lon="5.70783">
        <ele>802.415</ele>
        <time>2022-10-26T12:47:47Z</time>
      </trkpt>
      <trkpt lat="46.18009" lon="5.70741">
        <ele>807.061</ele>
        <time>2022-10-26T12:47:54Z</time>
      </trkpt>
      <trkpt lat="46.18065" lon="5.7062">
        <ele>823.428</ele>
        <time>2022-10-26T12:49:23Z</time>
      </trkpt>
      <trkpt lat="46.1805" lon="5.70521">
        <ele>832.774</ele>
        <time>2022-10-26T12:49:38Z</time>
      </trkpt>
      <trkpt lat="46.18078" lon="5.7048">
        <ele>839.995</ele>
        <time>2022-10-26T12:49:53Z</time>
      </trkpt>
      <trkpt lat="46.18086" lon="5.7041">
        <ele>843.127</ele>
        <time>2022-10-26T12:50:10Z</time>
      </trkpt>
      <trkpt lat="46.1817" lon="5.70334">
        <ele>863.026</ele>
        <time>2022-10-26T12:50:31Z</time>
      </trkpt>
      <trkpt lat="46.18278" lon="5.70287">
        <ele>880.649</ele>
        <time>2022-10-26T12:51:10Z</time>
      </trkpt>
      <trkpt lat="46.18371" lon="5.70067">
        <ele>899.069</ele>
        <time>2022-10-26T12:54:52Z</time>
      </trkpt>
      <trkpt lat="46.18432" lon="5.69708">
        <ele>909.704</ele>
        <time>2022-10-26T12:55:48Z</time>
      </trkpt>
      <trkpt lat="46.18385" lon="5.69425">
        <ele>892.524</ele>
        <time>2022-10-26T12:57:38Z</time>
      </trkpt>
      <trkpt lat="46.18544" lon="5.69298">
        <ele>856.409</ele>
        <time>2022-10-26T12:59:12Z</time>
      </trkpt>
      <trkpt lat="46.18445" lon="5.69215">
        <ele>831.967</ele>
        <time>2022-10-26T13:00:49Z</time>
      </trkpt>
      <trkpt lat="46.18467" lon="5.69166">
        <ele>824.657</ele>
        <time>2022-10-26T13:01:09Z</time>
      </trkpt>
      <trkpt lat="46.18539" lon="5.69108">
        <ele>815.333</ele>
        <time>2022-10-26T13:01:41Z</time>
      </trkpt>
      <trkpt lat="46.18506" lon="5.69051">
        <ele>813.02</ele>
        <time>2022-10-26T13:05:26Z</time>
      </trkpt>
      <trkpt lat="46.18534" lon="5.68961">
        <ele>802.766</ele>
        <time>2022-10-26T13:05:34Z</time>
      </trkpt>
      <trkpt lat="46.18546" lon="5.6883">
        <ele>788.037</ele>
        <time>2022-10-26T13:05:44Z</time>
      </trkpt>
      <trkpt lat="46.18507" lon="5.68564">
        <ele>764.459</ele>
        <time>2022-10-26T13:06:07Z</time>
      </trkpt>
      <trkpt lat="46.18446" lon="5.68538">
        <ele>764.788</ele>
        <time>2022-10-26T13:06:15Z</time>
      </trkpt>
      <trkpt lat="46.18404" lon="5.68416">
        <ele>770.531</ele>
        <time>2022-10-26T13:06:27Z</time>
      </trkpt>
      <trkpt lat="46.18302" lon="5.68495">
        <ele>774.042</ele>
        <time>2022-10-26T13:07:09Z</time>
      </trkpt>
      <trkpt lat="46.18242" lon="5.68482">
        <ele>771.222</ele>
        <time>2022-10-26T13:07:16Z</time>
      </trkpt>
      <trkpt lat="46.18032" lon="5.68525">
        <ele>754.814</ele>
        <time>2022-10-26T13:07:36Z</time>
      </trkpt>
      <trkpt lat="46.1791" lon="5.68318">
        <ele>748.209</ele>
        <time>2022-10-26T13:07:53Z</time>
      </trkpt>
      <trkpt lat="46.17796" lon="5.68304">
        <ele>741.245</ele>
        <time>2022-10-26T13:08:03Z</time>
      </trkpt>
      <trkpt lat="46.17694" lon="5.68137">
        <ele>732.945</ele>
        <time>2022-10-26T13:08:14Z</time>
      </trkpt>
      <trkpt lat="46.17627" lon="5.67969">
        <ele>721.661</ele>
        <time>2022-10-26T13:08:24Z</time>
      </trkpt>
      <trkpt lat="46.17584" lon="5.67929">
        <ele>718.218</ele>
        <time>2022-10-26T13:08:28Z</time>
      </trkpt>
      <trkpt lat="46.17538" lon="5.67944">
        <ele>714.574</ele>
        <time>2022-10-26T13:08:32Z</time>
      </trkpt>
      <trkpt lat="46.17499" lon="5.68048">
        <ele>707.675</ele>
        <time>2022-10-26T13:08:39Z</time>
      </trkpt>
      <trkpt lat="46.1746" lon="5.68088">
        <ele>702.347</ele>
        <time>2022-10-26T13:08:43Z</time>
      </trkpt>
      <trkpt lat="46.17279" lon="5.67992">
        <ele>685.696</ele>
        <time>2022-10-26T13:08:58Z</time>
      </trkpt>
      <trkpt lat="46.17222" lon="5.68017">
        <ele>680.079</ele>
        <time>2022-10-26T13:09:03Z</time>
      </trkpt>
      <trkpt lat="46.17135" lon="5.68271">
        <ele>663.327</ele>
        <time>2022-10-26T13:09:19Z</time>
      </trkpt>
      <trkpt lat="46.1703" lon="5.68316">
        <ele>654.168</ele>
        <time>2022-10-26T13:09:29Z</time>
      </trkpt>
      <trkpt lat="46.16992" lon="5.684">
        <ele>648.014</ele>
        <time>2022-10-26T13:09:37Z</time>
      </trkpt>
      <trkpt lat="46.16974" lon="5.68372">
        <ele>644.909</ele>
        <time>2022-10-26T13:09:40Z</time>
      </trkpt>
      <trkpt lat="46.17014" lon="5.68131">
        <ele>631.223</ele>
        <time>2022-10-26T13:09:56Z</time>
      </trkpt>
      <trkpt lat="46.17074" lon="5.68042">
        <ele>624.283</ele>
        <time>2022-10-26T13:10:05Z</time>
      </trkpt>
      <trkpt lat="46.17084" lon="5.67977">
        <ele>619.119</ele>
        <time>2022-10-26T13:10:11Z</time>
      </trkpt>
      <trkpt lat="46.17063" lon="5.67927">
        <ele>613.146</ele>
        <time>2022-10-26T13:10:54Z</time>
      </trkpt>
      <trkpt lat="46.17029" lon="5.67937">
        <ele>611.852</ele>
        <time>2022-10-26T13:11:02Z</time>
      </trkpt>
      <trkpt lat="46.16957" lon="5.681">
        <ele>609.513</ele>
        <time>2022-10-26T13:11:20Z</time>
      </trkpt>
      <trkpt lat="46.16916" lon="5.68494">
        <ele>596.175</ele>
        <time>2022-10-26T13:11:51Z</time>
      </trkpt>
      <trkpt lat="46.1689" lon="5.68489">
        <ele>592.214</ele>
        <time>2022-10-26T13:11:59Z</time>
      </trkpt>
      <trkpt lat="46.16908" lon="5.68508">
        <ele>591.677</ele>
        <time>2022-10-26T13:16:34Z</time>
      </trkpt>
      <trkpt lat="46.16902" lon="5.68486">
        <ele>590.643</ele>
        <time>2022-10-26T13:20:12Z</time>
      </trkpt>
      <trkpt lat="46.16899" lon="5.6851">
        <ele>590.864</ele>
        <time>2022-10-26T13:28:18Z</time>
      </trkpt>
      <trkpt lat="46.16915" lon="5.68314">
        <ele>586.91</ele>
        <time>2022-10-26T13:28:35Z</time>
      </trkpt>
      <trkpt lat="46.16887" lon="5.68265">
        <ele>583.109</ele>
        <time>2022-10-26T13:28:45Z</time>
      </trkpt>
      <trkpt lat="46.16825" lon="5.68594">
        <ele>582.815</ele>
        <time>2022-10-26T13:29:15Z</time>
      </trkpt>
      <trkpt lat="46.16741" lon="5.68789">
        <ele>585.795</ele>
        <time>2022-10-26T13:29:26Z</time>
      </trkpt>
      <trkpt lat="46.16696" lon="5.69043">
        <ele>585.921</ele>
        <time>2022-10-26T13:29:39Z</time>
      </trkpt>
      <trkpt lat="46.166" lon="5.69304">
        <ele>587.128</ele>
        <time>2022-10-26T13:29:55Z</time>
      </trkpt>
      <trkpt lat="46.16543" lon="5.69387">
        <ele>586.134</ele>
        <time>2022-10-26T13:30:01Z</time>
      </trkpt>
      <trkpt lat="46.16406" lon="5.69453">
        <ele>586.535</ele>
        <time>2022-10-26T13:30:11Z</time>
      </trkpt>
      <trkpt lat="46.16341" lon="5.69674">
        <ele>583.677</ele>
        <time>2022-10-26T13:30:21Z</time>
      </trkpt>
      <trkpt lat="46.16376" lon="5.70148">
        <ele>566.526</ele>
        <time>2022-10-26T13:30:40Z</time>
      </trkpt>
      <trkpt lat="46.16654" lon="5.71169">
        <ele>544.889</ele>
        <time>2022-10-26T13:31:21Z</time>
      </trkpt>
      <trkpt lat="46.16711" lon="5.71488">
        <ele>532.559</ele>
        <time>2022-10-26T13:31:34Z</time>
      </trkpt>
      <trkpt lat="46.1676" lon="5.71613">
        <ele>528.703</ele>
        <time>2022-10-26T13:31:40Z</time>
      </trkpt>
      <trkpt lat="46.16776" lon="5.71731">
        <ele>527.423</ele>
        <time>2022-10-26T13:31:45Z</time>
      </trkpt>
      <trkpt lat="46.16893" lon="5.71916">
        <ele>526.309</ele>
        <time>2022-10-26T13:31:55Z</time>
      </trkpt>
      <trkpt lat="46.16924" lon="5.72118">
        <ele>520.826</ele>
        <time>2022-10-26T13:32:04Z</time>
      </trkpt>
      <trkpt lat="46.17003" lon="5.72341">
        <ele>516.776</ele>
        <time>2022-10-26T13:32:15Z</time>
      </trkpt>
      <trkpt lat="46.17148" lon="5.72503">
        <ele>519.372</ele>
        <time>2022-10-26T13:32:26Z</time>
      </trkpt>
      <trkpt lat="46.17206" lon="5.72743">
        <ele>515.259</ele>
        <time>2022-10-26T13:32:36Z</time>
      </trkpt>
      <trkpt lat="46.17281" lon="5.72902">
        <ele>508.965</ele>
        <time>2022-10-26T13:32:46Z</time>
      </trkpt>
      <trkpt lat="46.17297" lon="5.73048">
        <ele>505.096</ele>
        <time>2022-10-26T13:32:54Z</time>
      </trkpt>
      <trkpt lat="46.1751" lon="5.73353">
        <ele>504.398</ele>
        <time>2022-10-26T13:33:15Z</time>
      </trkpt>
      <trkpt lat="46.176" lon="5.73402">
        <ele>502.247</ele>
        <time>2022-10-26T13:33:23Z</time>
      </trkpt>
      <trkpt lat="46.17707" lon="5.73647">
        <ele>496.95</ele>
        <time>2022-10-26T13:33:42Z</time>
      </trkpt>
      <trkpt lat="46.17686" lon="5.74127">
        <ele>489.254</ele>
        <time>2022-10-26T13:34:11Z</time>
      </trkpt>
      <trkpt lat="46.17668" lon="5.74198">
        <ele>488.356</ele>
        <time>2022-10-26T13:34:16Z</time>
      </trkpt>
      <trkpt lat="46.17546" lon="5.74397">
        <ele>485.311</ele>
        <time>2022-10-26T13:34:29Z</time>
      </trkpt>
      <trkpt lat="46.17481" lon="5.74552">
        <ele>482.809</ele>
        <time>2022-10-26T13:34:38Z</time>
      </trkpt>
      <trkpt lat="46.17288" lon="5.74662">
        <ele>477.676</ele>
        <time>2022-10-26T13:34:52Z</time>
      </trkpt>
      <trkpt lat="46.17173" lon="5.7478">
        <ele>472.816</ele>
        <time>2022-10-26T13:35:02Z</time>
      </trkpt>
      <trkpt lat="46.17127" lon="5.74906">
        <ele>469.342</ele>
        <time>2022-10-26T13:35:09Z</time>
      </trkpt>
      <trkpt lat="46.17021" lon="5.7507">
        <ele>464.529</ele>
        <time>2022-10-26T13:35:19Z</time>
      </trkpt>
      <trkpt lat="46.16959" lon="5.75291">
        <ele>458.785</ele>
        <time>2022-10-26T13:35:29Z</time>
      </trkpt>
      <trkpt lat="46.16886" lon="5.75451">
        <ele>455.676</ele>
        <time>2022-10-26T13:35:37Z</time>
      </trkpt>
      <trkpt lat="46.16802" lon="5.75751">
        <ele>446.968</ele>
        <time>2022-10-26T13:35:50Z</time>
      </trkpt>
      <trkpt lat="46.16668" lon="5.76045">
        <ele>438.447</ele>
        <time>2022-10-26T13:36:03Z</time>
      </trkpt>
      <trkpt lat="46.16504" lon="5.7624">
        <ele>434.55</ele>
        <time>2022-10-26T13:36:14Z</time>
      </trkpt>
      <trkpt lat="46.16429" lon="5.76373">
        <ele>434.778</ele>
        <time>2022-10-26T13:36:20Z</time>
      </trkpt>
      <trkpt lat="46.16367" lon="5.76697">
        <ele>435.633</ele>
        <time>2022-10-26T13:36:35Z</time>
      </trkpt>
      <trkpt lat="46.16302" lon="5.76874">
        <ele>440.226</ele>
        <time>2022-10-26T13:36:44Z</time>
      </trkpt>
      <trkpt lat="46.16217" lon="5.77212">
        <ele>448.709</ele>
        <time>2022-10-26T13:36:59Z</time>
      </trkpt>
      <trkpt lat="46.16245" lon="5.77514">
        <ele>453.448</ele>
        <time>2022-10-26T13:37:13Z</time>
      </trkpt>
      <trkpt lat="46.1624" lon="5.77734">
        <ele>457.568</ele>
        <time>2022-10-26T13:37:25Z</time>
      </trkpt>
      <trkpt lat="46.1618" lon="5.77857">
        <ele>461.014</ele>
        <time>2022-10-26T13:37:35Z</time>
      </trkpt>
      <trkpt lat="46.16102" lon="5.7791">
        <ele>463.931</ele>
        <time>2022-10-26T13:37:43Z</time>
      </trkpt>
      <trkpt lat="46.15991" lon="5.78168">
        <ele>470.827</ele>
        <time>2022-10-26T13:37:58Z</time>
      </trkpt>
      <trkpt lat="46.15789" lon="5.78499">
        <ele>481.138</ele>
        <time>2022-10-26T13:38:18Z</time>
      </trkpt>
      <trkpt lat="46.15658" lon="5.78615">
        <ele>486.82</ele>
        <time>2022-10-26T13:38:27Z</time>
      </trkpt>
      <trkpt lat="46.15665" lon="5.7867">
        <ele>487.569</ele>
        <time>2022-10-26T13:38:28Z</time>
      </trkpt>
      <trkpt lat="46.15643" lon="5.78655">
        <ele>487.992</ele>
        <time>2022-10-26T13:38:29Z</time>
      </trkpt>
      <trkpt lat="46.15515" lon="5.78916">
        <ele>494.668</ele>
        <time>2022-10-26T13:38:42Z</time>
      </trkpt>
      <trkpt lat="46.15456" lon="5.78962">
        <ele>496.442</ele>
        <time>2022-10-26T13:38:46Z</time>
      </trkpt>
      <trkpt lat="46.15267" lon="5.79018">
        <ele>500.626</ele>
        <time>2022-10-26T13:38:57Z</time>
      </trkpt>
      <trkpt lat="46.14843" lon="5.79373">
        <ele>513.609</ele>
        <time>2022-10-26T13:39:23Z</time>
      </trkpt>
      <trkpt lat="46.14552" lon="5.79511">
        <ele>517.227</ele>
        <time>2022-10-26T13:39:40Z</time>
      </trkpt>
      <trkpt lat="46.14383" lon="5.79629">
        <ele>518.897</ele>
        <time>2022-10-26T13:39:55Z</time>
      </trkpt>
      <trkpt lat="46.14363" lon="5.79682">
        <ele>520.333</ele>
        <time>2022-10-26T13:39:59Z</time>
      </trkpt>
      <trkpt lat="46.14366" lon="5.7984">
        <ele>522.35</ele>
        <time>2022-10-26T13:40:13Z</time>
      </trkpt>
      <trkpt lat="46.14466" lon="5.79915">
        <ele>525.736</ele>
        <time>2022-10-26T13:40:27Z</time>
      </trkpt>
      <trkpt lat="46.14491" lon="5.80018">
        <ele>529.277</ele>
        <time>2022-10-26T13:40:35Z</time>
      </trkpt>
      <trkpt lat="46.14463" lon="5.8012">
        <ele>529.899</ele>
        <time>2022-10-26T13:40:42Z</time>
      </trkpt>
      <trkpt lat="46.14399" lon="5.80208">
        <ele>528.518</ele>
        <time>2022-10-26T13:40:49Z</time>
      </trkpt>
      <trkpt lat="46.14119" lon="5.80351">
        <ele>519.751</ele>
        <time>2022-10-26T13:41:08Z</time>
      </trkpt>
      <trkpt lat="46.13655" lon="5.80455">
        <ele>501.695</ele>
        <time>2022-10-26T13:41:35Z</time>
      </trkpt>
      <trkpt lat="46.13594" lon="5.80408">
        <ele>498.149</ele>
        <time>2022-10-26T13:41:40Z</time>
      </trkpt>
      <trkpt lat="46.13562" lon="5.80245">
        <ele>492.923</ele>
        <time>2022-10-26T13:41:49Z</time>
      </trkpt>
      <trkpt lat="46.13525" lon="5.80241">
        <ele>490.309</ele>
        <time>2022-10-26T13:41:53Z</time>
      </trkpt>
      <trkpt lat="46.13507" lon="5.80392">
        <ele>488.34</ele>
        <time>2022-10-26T13:42:01Z</time>
      </trkpt>
      <trkpt lat="46.13453" lon="5.80569">
        <ele>483.65</ele>
        <time>2022-10-26T13:42:10Z</time>
      </trkpt>
      <trkpt lat="46.13212" lon="5.80692">
        <ele>475.936</ele>
        <time>2022-10-26T13:42:26Z</time>
      </trkpt>
      <trkpt lat="46.13042" lon="5.80977">
        <ele>466.243</ele>
        <time>2022-10-26T13:42:39Z</time>
      </trkpt>
      <trkpt lat="46.12812" lon="5.81162">
        <ele>450.059</ele>
        <time>2022-10-26T13:43:00Z</time>
      </trkpt>
      <trkpt lat="46.12807" lon="5.81214">
        <ele>448.89</ele>
        <time>2022-10-26T13:43:04Z</time>
      </trkpt>
      <trkpt lat="46.12632" lon="5.8152">
        <ele>443.522</ele>
        <time>2022-10-26T13:43:23Z</time>
      </trkpt>
      <trkpt lat="46.12578" lon="5.81702">
        <ele>438.221</ele>
        <time>2022-10-26T13:43:31Z</time>
      </trkpt>
      <trkpt lat="46.12534" lon="5.81771">
        <ele>434.944</ele>
        <time>2022-10-26T13:43:35Z</time>
      </trkpt>
      <trkpt lat="46.1229" lon="5.81881">
        <ele>427.628</ele>
        <time>2022-10-26T13:43:49Z</time>
      </trkpt>
      <trkpt lat="46.1217" lon="5.81886">
        <ele>422.989</ele>
        <time>2022-10-26T13:43:56Z</time>
      </trkpt>
      <trkpt lat="46.12097" lon="5.81943">
        <ele>419.817</ele>
        <time>2022-10-26T13:44:01Z</time>
      </trkpt>
      <trkpt lat="46.12043" lon="5.82052">
        <ele>418.409</ele>
        <time>2022-10-26T13:44:06Z</time>
      </trkpt>
      <trkpt lat="46.1199" lon="5.82291">
        <ele>409.683</ele>
        <time>2022-10-26T13:44:17Z</time>
      </trkpt>
      <trkpt lat="46.11855" lon="5.82321">
        <ele>405.653</ele>
        <time>2022-10-26T13:44:25Z</time>
      </trkpt>
      <trkpt lat="46.11783" lon="5.82268">
        <ele>399.949</ele>
        <time>2022-10-26T13:44:31Z</time>
      </trkpt>
      <trkpt lat="46.11643" lon="5.82232">
        <ele>397.766</ele>
        <time>2022-10-26T13:44:39Z</time>
      </trkpt>
      <trkpt lat="46.11559" lon="5.82247">
        <ele>393.442</ele>
        <time>2022-10-26T13:44:44Z</time>
      </trkpt>
      <trkpt lat="46.1147" lon="5.82324">
        <ele>392.423</ele>
        <time>2022-10-26T13:44:49Z</time>
      </trkpt>
      <trkpt lat="46.11376" lon="5.82482">
        <ele>384.265</ele>
        <time>2022-10-26T13:44:57Z</time>
      </trkpt>
      <trkpt lat="46.11152" lon="5.82762">
        <ele>367.144</ele>
        <time>2022-10-26T13:45:20Z</time>
      </trkpt>
      <trkpt lat="46.11056" lon="5.82826">
        <ele>363.977</ele>
        <time>2022-10-26T13:45:28Z</time>
      </trkpt>
      <trkpt lat="46.10994" lon="5.82784">
        <ele>355.871</ele>
        <time>2022-10-26T13:45:43Z</time>
      </trkpt>
      <trkpt lat="46.10949" lon="5.82803">
        <ele>355.141</ele>
        <time>2022-10-26T13:45:52Z</time>
      </trkpt>
      <trkpt lat="46.10879" lon="5.82723">
        <ele>351.915</ele>
        <time>2022-10-26T13:46:10Z</time>
      </trkpt>
      <trkpt lat="46.10821" lon="5.82552">
        <ele>351.509</ele>
        <time>2022-10-26T13:46:34Z</time>
      </trkpt>
      <trkpt lat="46.10901" lon="5.82493">
        <ele>355.728</ele>
        <time>2022-10-26T13:47:09Z</time>
      </trkpt>
      <trkpt lat="46.10811" lon="5.8237">
        <ele>357.388</ele>
        <time>2022-10-26T13:47:35Z</time>
      </trkpt>
    </trkseg>
  </trk>
</gpx>